Time;durP1;ratioP1;P1;durP2;ratioP2;P2;SDS_P1;SDS_P2;PMS_P1;PMS_P2;Temp;Humidity;BMP_temperature;BMP_pressure;BME280_temperature;BME280_humidity;BME280_pressure;Samples;Min_cycle;Max_cycle;Signal;HPM_P1;HPM_P2
2024/01/25 00:01:41;;;;;;;34.00;6.97;;;8.30;99.90;;;;;;5015454;28;20041;-74
2024/01/25 00:04:07;;;;;;;30.13;7.63;;;8.30;99.90;;;;;;5020410;28;20050;-74
2024/01/25 00:06:33;;;;;;;31.15;8.05;;;8.30;99.90;;;;;;5017352;28;20044;-73
2024/01/25 00:08:59;;;;;;;30.10;7.25;;;8.30;99.90;;;;;;5022892;28;20487;-78
2024/01/25 00:11:24;;;;;;;25.33;6.65;;;8.30;99.90;;;;;;5010048;28;20033;-79
2024/01/25 00:13:50;;;;;;;31.50;7.15;;;8.20;99.90;;;;;;5015398;28;20089;-79
2024/01/25 00:16:16;;;;;;;27.10;6.78;;;8.20;99.90;;;;;;5006495;28;20040;-80
2024/01/25 00:18:42;;;;;;;28.95;7.13;;;8.10;99.90;;;;;;5014875;28;20045;-80
2024/01/25 00:21:08;;;;;;;26.75;6.45;;;8.10;99.90;;;;;;5011578;28;20191;-80
2024/01/25 00:23:34;;;;;;;31.70;7.38;;;8.10;99.90;;;;;;5020241;28;20610;-79
2024/01/25 00:25:59;;;;;;;31.67;6.82;;;8.00;99.90;;;;;;5009237;28;20058;-81
2024/01/25 00:28:26;;;;;;;26.40;7.63;;;8.00;99.90;;;;;;5012610;28;20128;-80
2024/01/25 00:30:52;;;;;;;33.55;8.70;;;8.00;99.90;;;;;;5020849;28;20730;-80
2024/01/25 00:33:18;;;;;;;38.22;9.00;;;8.00;99.90;;;;;;5019523;28;20512;-80
2024/01/25 00:35:44;;;;;;;32.13;7.97;;;7.90;99.90;;;;;;5005366;28;20045;-81
2024/01/25 00:38:10;;;;;;;33.67;7.93;;;7.90;99.90;;;;;;5005826;28;20037;-81
2024/01/25 00:40:36;;;;;;;32.85;7.53;;;7.90;99.90;;;;;;5018865;28;20049;-81
2024/01/25 00:43:02;;;;;;;33.92;7.57;;;7.80;99.90;;;;;;5006145;28;20044;-81
2024/01/25 00:45:37;;;;;;;34.63;7.85;;;7.80;99.90;;;;;;5020134;28;20048;-74
2024/01/25 00:48:03;;;;;;;36.17;8.80;;;7.80;99.90;;;;;;5001864;28;20122;-74
2024/01/25 00:50:29;;;;;;;31.52;7.50;;;7.80;99.90;;;;;;5000688;28;20110;-74
2024/01/25 00:52:55;;;;;;;31.45;7.00;;;7.80;99.90;;;;;;5026814;28;20049;-74
2024/01/25 00:55:21;;;;;;;34.00;7.85;;;7.70;99.90;;;;;;5016858;28;20253;-74
2024/01/25 00:57:47;;;;;;;30.63;8.43;;;7.70;99.90;;;;;;5020813;28;20091;-74
2024/01/25 01:00:13;;;;;;;40.10;8.95;;;7.70;99.90;;;;;;5018112;28;20049;-74
2024/01/25 01:02:42;;;;;;;33.05;8.93;;;7.70;99.90;;;;;;5018320;28;20053;-74
2024/01/25 01:05:09;;;;;;;36.47;8.63;;;7.60;99.90;;;;;;5026784;28;20048;-75
2024/01/25 01:07:35;;;;;;;32.85;8.00;;;7.60;99.90;;;;;;5008651;28;20139;-75
2024/01/25 01:10:01;;;;;;;39.72;9.18;;;7.60;99.90;;;;;;5017010;28;20128;-75
2024/01/25 01:12:27;;;;;;;33.83;7.82;;;7.50;99.90;;;;;;5016489;28;20045;-74
2024/01/25 01:14:52;;;;;;;40.17;8.38;;;7.40;99.90;;;;;;5026354;28;20053;-75
2024/01/25 01:17:18;;;;;;;38.95;8.80;;;7.40;99.90;;;;;;5022293;28;20048;-74
2024/01/25 01:19:44;;;;;;;36.15;8.05;;;7.40;99.90;;;;;;5022845;28;20048;-74
2024/01/25 01:22:10;;;;;;;35.53;8.18;;;7.30;99.90;;;;;;5015535;28;20045;-75
2024/01/25 01:24:36;;;;;;;37.45;8.48;;;7.30;99.90;;;;;;5018917;28;20049;-76
2024/01/25 01:27:02;;;;;;;39.15;7.97;;;7.30;99.90;;;;;;5022192;28;20064;-74
2024/01/25 01:29:28;;;;;;;34.42;8.32;;;7.20;99.90;;;;;;5024002;28;20084;-75
2024/01/25 01:31:53;;;;;;;41.33;8.70;;;7.20;99.90;;;;;;5021145;28;20044;-75
2024/01/25 01:34:19;;;;;;;34.35;7.93;;;7.10;99.90;;;;;;5025798;28;20041;-75
2024/01/25 01:36:45;;;;;;;32.55;8.02;;;7.10;99.90;;;;;;5017064;28;20529;-74
2024/01/25 01:39:11;;;;;;;35.70;8.57;;;7.10;99.90;;;;;;5016011;28;20057;-74
2024/01/25 01:41:37;;;;;;;41.13;8.55;;;7.00;99.90;;;;;;5025112;28;20464;-74
2024/01/25 01:44:03;;;;;;;39.40;8.23;;;7.00;99.90;;;;;;5000371;28;20055;-74
2024/01/25 01:46:36;;;;;;;35.13;8.52;;;7.00;99.90;;;;;;5032167;28;20041;-74
2024/01/25 01:49:04;;;;;;;36.90;9.23;;;6.90;99.90;;;;;;5020033;28;20151;-74
2024/01/25 01:51:33;;;;;;;36.45;8.73;;;6.90;99.90;;;;;;5016214;28;20041;-74
2024/01/25 01:54:01;;;;;;;38.78;8.77;;;6.90;99.90;;;;;;5022312;28;20040;-75
2024/01/25 01:56:31;;;;;;;32.78;8.32;;;6.90;99.90;;;;;;5014986;28;20147;-74
2024/01/25 01:59:02;;;;;;;39.58;8.75;;;6.80;99.90;;;;;;5017352;28;20117;-74
2024/01/25 02:01:29;;;;;;;39.72;9.25;;;6.80;99.90;;;;;;5010211;28;20120;-74
2024/01/25 02:03:58;;;;;;;35.60;8.02;;;6.80;99.90;;;;;;5013464;28;20064;-76
2024/01/25 02:06:24;;;;;;;39.78;9.27;;;6.80;99.90;;;;;;5023776;28;20051;-73
2024/01/25 02:08:51;;;;;;;38.55;8.35;;;6.70;99.90;;;;;;5016444;28;20049;-74
2024/01/25 02:11:17;;;;;;;39.78;8.65;;;6.70;99.90;;;;;;5015570;28;20480;-74
2024/01/25 02:13:44;;;;;;;37.83;8.45;;;6.60;99.90;;;;;;5016544;28;20128;-74
2024/01/25 02:16:11;;;;;;;36.70;7.97;;;6.60;99.90;;;;;;5015359;28;20529;-74
2024/01/25 02:18:37;;;;;;;39.63;8.30;;;6.70;99.90;;;;;;5004143;28;20053;-73
2024/01/25 02:21:03;;;;;;;40.00;10.32;;;6.60;99.90;;;;;;5039286;28;20049;-74
2024/01/25 02:23:29;;;;;;;34.33;7.95;;;6.60;99.90;;;;;;5018413;28;20503;-74
2024/01/25 02:25:55;;;;;;;39.88;8.93;;;6.60;99.90;;;;;;5015062;28;20045;-74
2024/01/25 02:28:21;;;;;;;38.55;8.82;;;6.60;99.90;;;;;;5021531;28;20483;-74
2024/01/25 02:30:47;;;;;;;41.67;9.35;;;6.50;99.90;;;;;;5018708;28;20045;-74
2024/01/25 02:33:15;;;;;;;39.45;8.75;;;6.50;99.90;;;;;;5012392;28;20037;-74
2024/01/25 02:35:41;;;;;;;41.05;8.57;;;6.50;99.90;;;;;;4998440;28;20128;-74
2024/01/25 02:38:07;;;;;;;43.05;8.68;;;6.50;99.90;;;;;;5015392;28;20206;-74
2024/01/25 02:40:33;;;;;;;39.25;8.18;;;6.50;99.90;;;;;;5000100;28;20064;-74
2024/01/25 02:42:59;;;;;;;40.50;8.63;;;6.50;99.90;;;;;;5012595;28;20052;-74
2024/01/25 02:45:24;;;;;;;37.70;8.43;;;6.40;99.90;;;;;;5020174;28;20072;-74
2024/01/25 02:47:50;;;;;;;39.08;7.90;;;6.40;99.90;;;;;;5025233;28;20138;-74
2024/01/25 02:50:16;;;;;;;39.53;8.20;;;6.40;99.90;;;;;;5011833;28;20364;-74
2024/01/25 02:52:42;;;;;;;34.60;7.88;;;6.40;99.90;;;;;;5020347;28;20045;-73
2024/01/25 02:55:08;;;;;;;34.70;7.38;;;6.40;99.90;;;;;;5019807;28;20582;-74
2024/01/25 02:57:34;;;;;;;41.78;8.73;;;6.40;99.90;;;;;;5013355;28;20168;-74
2024/01/25 03:00:00;;;;;;;37.67;9.05;;;6.40;99.90;;;;;;5014479;28;20071;-75
2024/01/25 03:02:28;;;;;;;39.70;8.38;;;6.30;99.90;;;;;;5001535;28;20045;-74
2024/01/25 03:04:54;;;;;;;47.60;9.30;;;6.30;99.90;;;;;;5028096;28;20055;-74
2024/01/25 03:07:20;;;;;;;42.65;9.05;;;6.30;99.90;;;;;;5011411;28;20482;-74
2024/01/25 03:09:45;;;;;;;37.05;8.18;;;6.30;99.90;;;;;;5030248;28;20048;-73
2024/01/25 03:12:11;;;;;;;38.30;8.73;;;6.30;99.90;;;;;;5008846;28;20511;-74
2024/01/25 03:14:37;;;;;;;46.15;10.00;;;6.20;99.90;;;;;;5027957;28;20412;-74
2024/01/25 03:17:03;;;;;;;35.83;8.25;;;6.20;99.90;;;;;;5043507;28;20495;-74
2024/01/25 03:19:29;;;;;;;41.60;9.05;;;6.20;99.90;;;;;;5028139;28;20376;-74
2024/01/25 03:21:55;;;;;;;39.80;8.52;;;6.10;99.90;;;;;;5027479;28;20142;-73
2024/01/25 03:24:21;;;;;;;40.55;9.32;;;6.10;99.90;;;;;;5014498;28;20064;-74
2024/01/25 03:26:50;;;;;;;38.03;8.87;;;6.20;99.90;;;;;;5012126;28;20060;-74
2024/01/25 03:29:16;;;;;;;40.05;8.95;;;6.10;99.90;;;;;;4997892;28;20037;-73
2024/01/25 03:31:42;;;;;;;37.05;8.98;;;6.10;99.90;;;;;;5013746;28;20103;-74
2024/01/25 03:34:07;;;;;;;41.85;8.13;;;6.10;99.90;;;;;;5019331;28;20126;-74
2024/01/25 03:36:33;;;;;;;36.08;8.63;;;6.10;99.90;;;;;;5016639;28;20449;-74
2024/01/25 03:38:59;;;;;;;45.05;10.00;;;6.10;99.90;;;;;;5009526;28;20146;-74
2024/01/25 03:41:25;;;;;;;40.67;8.95;;;6.10;99.90;;;;;;5007168;28;20045;-74
2024/01/25 03:43:54;;;;;;;41.90;9.93;;;6.10;99.90;;;;;;5019923;28;20057;-74
2024/01/25 03:46:20;;;;;;;40.33;8.65;;;6.00;99.90;;;;;;5018143;28;20048;-73
2024/01/25 03:48:45;;;;;;;44.78;9.00;;;6.10;99.90;;;;;;5001244;28;20476;-74
2024/01/25 03:51:11;;;;;;;41.63;9.07;;;6.00;99.90;;;;;;5013463;28;20439;-74
2024/01/25 03:53:37;;;;;;;33.55;8.20;;;6.00;99.90;;;;;;5019309;28;20399;-73
2024/01/25 03:56:03;;;;;;;46.85;10.05;;;6.00;99.90;;;;;;5011770;28;20041;-73
2024/01/25 03:58:29;;;;;;;36.63;9.45;;;6.00;99.90;;;;;;5012077;28;20041;-74
2024/01/25 04:00:55;;;;;;;32.33;8.77;;;6.10;99.90;;;;;;5013373;28;20060;-74
2024/01/25 04:03:21;;;;;;;40.72;8.70;;;6.00;99.90;;;;;;5014090;28;20502;-74
2024/01/25 04:05:46;;;;;;;38.63;9.30;;;6.00;99.90;;;;;;5015327;28;20091;-73
2024/01/25 04:08:12;;;;;;;40.80;8.98;;;5.90;99.90;;;;;;5017016;28;20041;-74
2024/01/25 04:10:38;;;;;;;38.85;8.45;;;5.90;99.90;;;;;;5003075;28;20132;-74
2024/01/25 04:13:06;;;;;;;40.70;8.90;;;5.90;99.90;;;;;;5019048;28;20041;-74
2024/01/25 04:15:32;;;;;;;40.67;8.30;;;5.90;99.90;;;;;;5018147;28;20058;-74
2024/01/25 04:17:57;;;;;;;43.95;9.10;;;5.90;99.90;;;;;;5023024;28;20517;-74
2024/01/25 04:20:23;;;;;;;41.53;9.35;;;5.90;99.90;;;;;;5017374;28;20052;-74
2024/01/25 04:22:49;;;;;;;35.88;7.70;;;5.80;99.90;;;;;;5017812;28;20488;-73
2024/01/25 04:25:15;;;;;;;40.25;9.27;;;5.90;99.90;;;;;;5018769;28;20043;-74
2024/01/25 04:27:46;;;;;;;38.42;8.63;;;5.80;99.90;;;;;;5019676;28;20044;-74
2024/01/25 04:30:12;;;;;;;35.30;8.23;;;5.80;99.90;;;;;;5013232;28;20045;-74
2024/01/25 04:32:38;;;;;;;37.05;8.57;;;5.80;99.90;;;;;;5019328;28;20410;-74
2024/01/25 04:35:04;;;;;;;38.85;8.75;;;5.70;99.90;;;;;;5021414;28;20048;-74
2024/01/25 04:37:29;;;;;;;41.53;9.27;;;5.70;99.90;;;;;;5025726;28;20056;-74
2024/01/25 04:39:55;;;;;;;47.55;9.05;;;5.70;99.90;;;;;;5018701;28;20045;-73
2024/01/25 04:42:21;;;;;;;39.58;8.05;;;5.70;99.90;;;;;;5029847;28;20507;-74
2024/01/25 04:44:47;;;;;;;43.28;9.30;;;5.70;99.90;;;;;;5025385;28;20067;-73
2024/01/25 04:47:13;;;;;;;41.97;8.73;;;5.70;99.90;;;;;;5026944;28;20037;-74
2024/01/25 04:49:40;;;;;;;46.97;8.98;;;5.70;99.90;;;;;;5018579;28;20064;-73
2024/01/25 04:52:06;;;;;;;39.35;8.25;;;5.70;99.90;;;;;;5024947;28;20075;-74
2024/01/25 04:54:32;;;;;;;44.20;8.65;;;5.70;99.90;;;;;;5021481;28;20048;-74
2024/01/25 04:56:58;;;;;;;35.63;8.43;;;5.60;99.90;;;;;;5013997;28;20455;-73
2024/01/25 04:59:23;;;;;;;33.85;8.57;;;5.70;99.90;;;;;;5012288;28;20052;-74
2024/01/25 05:01:49;;;;;;;35.15;8.43;;;5.60;99.90;;;;;;5040407;28;20049;-74
2024/01/25 05:04:16;;;;;;;38.10;8.85;;;5.60;99.90;;;;;;5018908;28;20124;-75
2024/01/25 05:06:42;;;;;;;42.90;8.38;;;5.60;99.90;;;;;;5030449;28;20052;-73
2024/01/25 05:09:08;;;;;;;35.60;8.82;;;5.60;99.90;;;;;;5028917;28;20041;-73
2024/01/25 05:11:39;;;;;;;37.00;8.18;;;5.50;99.90;;;;;;5032051;28;20048;-73
2024/01/25 05:14:05;;;;;;;44.33;8.00;;;5.50;99.90;;;;;;5029133;28;20052;-74
2024/01/25 05:16:31;;;;;;;38.25;8.00;;;5.40;99.90;;;;;;5039263;28;20041;-74
2024/01/25 05:18:56;;;;;;;38.72;7.70;;;5.40;99.90;;;;;;5000844;28;20056;-74
2024/01/25 05:21:22;;;;;;;41.63;8.93;;;5.30;99.90;;;;;;5031794;28;20107;-74
2024/01/25 05:23:48;;;;;;;29.23;7.55;;;5.20;99.90;;;;;;5028700;28;20346;-74
2024/01/25 05:26:15;;;;;;;27.50;7.43;;;5.20;99.90;;;;;;5015792;28;20092;-74
2024/01/25 05:28:40;;;;;;;39.70;8.82;;;5.20;99.90;;;;;;5028571;28;20491;-74
2024/01/25 05:31:12;;;;;;;34.70;8.05;;;5.10;99.90;;;;;;5031896;28;20060;-74
2024/01/25 05:33:39;;;;;;;37.50;7.40;;;5.10;99.90;;;;;;5003679;28;20137;-74
2024/01/25 05:36:05;;;;;;;35.90;8.23;;;5.00;99.90;;;;;;5030797;28;20037;-74
2024/01/25 05:38:32;;;;;;;41.03;7.97;;;5.00;99.90;;;;;;5012410;28;20045;-75
2024/01/25 05:40:58;;;;;;;32.67;7.38;;;4.90;99.90;;;;;;5027088;28;20455;-74
2024/01/25 05:43:24;;;;;;;43.60;8.07;;;5.00;99.90;;;;;;5027107;28;20044;-73
2024/01/25 05:45:50;;;;;;;31.65;7.25;;;4.80;99.90;;;;;;5016829;28;20504;-74
2024/01/25 05:48:19;;;;;;;38.22;8.23;;;4.80;99.90;;;;;;5027462;28;20518;-74
2024/01/25 05:50:44;;;;;;;39.30;8.15;;;4.70;99.90;;;;;;5029203;28;20041;-73
2024/01/25 05:53:10;;;;;;;46.45;8.80;;;4.70;99.90;;;;;;5029299;28;20068;-73
2024/01/25 05:55:36;;;;;;;45.60;9.38;;;4.70;99.90;;;;;;5014698;28;20049;-73
2024/01/25 05:58:02;;;;;;;47.97;9.73;;;4.70;99.90;;;;;;4998393;28;20069;-73
2024/01/25 06:00:28;;;;;;;38.63;8.57;;;4.60;99.90;;;;;;5014575;28;20095;-73
2024/01/25 06:02:54;;;;;;;47.83;9.63;;;4.60;99.90;;;;;;5014927;28;20041;-74
2024/01/25 06:05:20;;;;;;;40.70;9.52;;;4.70;99.90;;;;;;5012913;28;20403;-73
2024/01/25 06:07:45;;;;;;;40.92;9.23;;;4.60;99.90;;;;;;5014585;28;20144;-74
2024/01/25 06:10:11;;;;;;;53.00;10.65;;;4.60;99.90;;;;;;5002185;28;20086;-74
2024/01/25 06:12:37;;;;;;;49.60;9.13;;;4.60;99.90;;;;;;4996937;28;20133;-73
2024/01/25 06:15:07;;;;;;;41.72;9.45;;;4.60;99.90;;;;;;5023407;28;20045;-73
2024/01/25 06:17:33;;;;;;;41.13;8.95;;;4.60;99.90;;;;;;5022387;28;20049;-73
2024/01/25 06:19:58;;;;;;;47.05;8.48;;;4.60;99.90;;;;;;5017509;28;20116;-74
2024/01/25 06:22:24;;;;;;;44.88;9.23;;;4.60;99.90;;;;;;5010477;28;20061;-74
2024/01/25 06:24:50;;;;;;;46.30;9.00;;;4.50;99.90;;;;;;5012973;28;20570;-74
2024/01/25 06:27:16;;;;;;;46.78;9.93;;;4.60;99.90;;;;;;5012430;28;20037;-73
2024/01/25 06:29:41;;;;;;;39.33;8.45;;;4.50;99.90;;;;;;5022951;28;20488;-75
2024/01/25 06:32:07;;;;;;;46.45;9.55;;;4.60;99.90;;;;;;5021704;28;20030;-77
2024/01/25 06:34:33;;;;;;;42.42;9.57;;;4.60;99.90;;;;;;5014808;28;20045;-74
2024/01/25 06:36:59;;;;;;;38.30;8.27;;;4.50;99.90;;;;;;5023160;28;20052;-74
2024/01/25 06:39:27;;;;;;;41.30;9.27;;;4.60;99.90;;;;;;5016931;28;20955;-74
2024/01/25 06:41:53;;;;;;;53.08;9.70;;;4.50;99.90;;;;;;5000970;28;20048;-73
2024/01/25 06:44:19;;;;;;;44.63;9.70;;;4.40;99.90;;;;;;5025288;28;20055;-74
2024/01/25 06:46:45;;;;;;;45.90;9.45;;;4.40;99.90;;;;;;5014886;28;20088;-75
2024/01/25 06:49:11;;;;;;;43.70;8.52;;;4.30;99.90;;;;;;5011260;28;20041;-73
2024/01/25 06:51:36;;;;;;;35.30;7.93;;;4.30;99.90;;;;;;5019866;28;20040;-71
2024/01/25 06:54:02;;;;;;;42.38;9.65;;;4.30;99.90;;;;;;4999467;28;20080;-73
2024/01/25 06:56:28;;;;;;;44.15;8.52;;;4.20;99.90;;;;;;5018682;28;20052;-73
2024/01/25 06:58:54;;;;;;;39.97;8.75;;;4.20;99.90;;;;;;4999550;28;20049;-73
2024/01/25 07:01:23;;;;;;;40.20;7.65;;;4.20;99.90;;;;;;5012622;28;20500;-73
2024/01/25 07:03:52;;;;;;;51.57;9.63;;;4.20;99.90;;;;;;5010476;28;20044;-73
2024/01/25 07:06:19;;;;;;;39.90;9.40;;;4.10;99.90;;;;;;5013195;28;20049;-73
2024/01/25 07:08:45;;;;;;;57.00;10.48;;;4.10;99.90;;;;;;5014975;28;20045;-74
2024/01/25 07:11:11;;;;;;;39.10;9.10;;;4.10;99.90;;;;;;5012449;28;20104;-73
2024/01/25 07:13:37;;;;;;;47.15;9.52;;;4.10;99.90;;;;;;5013084;28;20033;-73
2024/01/25 07:16:03;;;;;;;53.08;8.80;;;4.10;99.90;;;;;;4997934;28;20041;-73
2024/01/25 07:18:29;;;;;;;58.60;10.00;;;4.00;99.90;;;;;;5013009;28;20080;-72
2024/01/25 07:20:55;;;;;;;39.53;8.50;;;4.10;99.90;;;;;;5010413;28;20773;-72
2024/01/25 07:23:22;;;;;;;61.75;10.55;;;4.10;99.90;;;;;;5020421;28;20053;-72
2024/01/25 07:25:48;;;;;;;52.42;9.25;;;4.00;99.90;;;;;;5008387;28;20582;-71
2024/01/25 07:28:13;;;;;;;51.03;9.30;;;4.00;99.90;;;;;;5011922;28;20112;-72
2024/01/25 07:30:39;;;;;;;55.13;10.63;;;4.00;99.90;;;;;;5017276;28;20033;-71
2024/01/25 07:33:05;;;;;;;55.92;10.05;;;4.00;99.90;;;;;;5022287;28;20060;-71
2024/01/25 07:35:32;;;;;;;54.25;9.65;;;3.90;99.90;;;;;;5014127;28;20040;-71
2024/01/25 07:37:58;;;;;;;56.10;12.00;;;4.00;99.90;;;;;;5015801;28;20048;-72
2024/01/25 07:40:23;;;;;;;52.78;9.63;;;3.90;99.90;;;;;;5014451;28;20044;-71
2024/01/25 07:42:49;;;;;;;49.90;9.43;;;3.90;99.90;;;;;;5022566;28;20127;-72
2024/01/25 07:45:18;;;;;;;54.42;10.48;;;3.90;99.90;;;;;;5015282;28;20238;-72
2024/01/25 07:47:44;;;;;;;68.65;11.90;;;3.80;99.90;;;;;;5035053;28;20512;-72
2024/01/25 07:50:10;;;;;;;59.38;10.32;;;3.80;99.90;;;;;;5010019;28;20136;-72
2024/01/25 07:52:36;;;;;;;49.72;10.10;;;3.90;99.90;;;;;;5013353;28;20146;-72
2024/01/25 07:55:01;;;;;;;56.53;10.88;;;3.90;99.90;;;;;;5012668;28;20488;-72
2024/01/25 07:57:27;;;;;;;58.08;10.77;;;3.90;99.90;;;;;;5016026;28;20069;-72
2024/01/25 07:59:53;;;;;;;56.20;11.43;;;3.90;99.90;;;;;;5013816;28;20048;-72
2024/01/25 08:02:19;;;;;;;52.55;9.57;;;4.00;99.90;;;;;;5016086;28;20049;-72
2024/01/25 08:04:47;;;;;;;52.10;10.15;;;4.00;99.90;;;;;;5009280;28;20139;-72
2024/01/25 08:07:13;;;;;;;67.68;10.82;;;4.00;99.90;;;;;;4998928;28;20553;-72
2024/01/25 08:09:39;;;;;;;57.97;11.32;;;4.10;99.90;;;;;;5016502;28;20806;-72
2024/01/25 08:12:05;;;;;;;55.65;10.82;;;4.10;99.90;;;;;;5016485;28;20044;-72
2024/01/25 08:14:33;;;;;;;55.28;10.40;;;4.10;99.90;;;;;;5012544;28;21242;-73
2024/01/25 08:17:00;;;;;;;58.13;10.63;;;4.30;99.90;;;;;;5018213;28;20091;-72
2024/01/25 08:19:26;;;;;;;46.33;10.45;;;4.30;99.90;;;;;;4998074;28;20053;-72
2024/01/25 08:21:51;;;;;;;53.72;10.50;;;4.40;99.90;;;;;;5015613;28;20436;-72
2024/01/25 08:24:18;;;;;;;51.90;10.80;;;4.50;99.90;;;;;;5013546;28;20155;-72
2024/01/25 08:26:43;;;;;;;69.30;11.02;;;4.50;99.90;;;;;;5012094;28;20049;-72
2024/01/25 08:29:10;;;;;;;60.83;10.60;;;4.60;99.90;;;;;;5012363;28;20038;-72
2024/01/25 08:31:36;;;;;;;52.60;10.20;;;4.60;99.90;;;;;;5011615;28;20039;-72
2024/01/25 08:34:02;;;;;;;58.53;11.55;;;4.70;99.90;;;;;;5019360;28;20102;-72
2024/01/25 08:36:27;;;;;;;58.40;11.48;;;4.70;99.90;;;;;;5024698;28;20045;-72
2024/01/25 08:38:53;;;;;;;57.28;11.25;;;4.60;99.90;;;;;;5007567;28;20045;-72
2024/01/25 08:41:19;;;;;;;44.97;9.50;;;4.70;99.90;;;;;;4996109;28;20959;-72
2024/01/25 08:43:45;;;;;;;46.45;9.30;;;4.70;99.90;;;;;;5012828;28;20041;-72
2024/01/25 08:46:15;;;;;;;48.58;9.60;;;4.70;99.90;;;;;;5009093;28;20539;-72
2024/01/25 08:48:41;;;;;;;52.20;10.88;;;4.80;99.90;;;;;;5014853;28;20488;-72
2024/01/25 08:51:07;;;;;;;50.03;9.52;;;4.80;99.90;;;;;;5013048;28;20056;-73
2024/01/25 08:53:33;;;;;;;49.25;10.65;;;4.80;99.90;;;;;;4999402;28;20592;-72
2024/01/25 08:55:59;;;;;;;58.30;11.85;;;4.80;99.90;;;;;;5012102;28;20041;-72
2024/01/25 08:58:25;;;;;;;51.08;9.57;;;4.80;99.90;;;;;;5014853;28;20091;-71
2024/01/25 09:00:51;;;;;;;57.92;11.27;;;4.90;99.90;;;;;;5016124;28;20131;-72
2024/01/25 09:03:17;;;;;;;48.88;9.90;;;4.90;99.90;;;;;;5008241;28;20040;-71
2024/01/25 09:05:45;;;;;;;48.83;11.05;;;4.90;99.90;;;;;;5011658;28;20237;-72
2024/01/25 09:08:12;;;;;;;48.88;10.27;;;4.90;99.90;;;;;;5015209;28;20564;-72
2024/01/25 09:10:39;;;;;;;50.03;10.95;;;4.90;99.90;;;;;;5017382;28;20121;-72
2024/01/25 09:13:05;;;;;;;56.05;10.68;;;4.90;99.90;;;;;;5003854;28;20084;-72
2024/01/25 09:15:31;;;;;;;56.88;12.27;;;4.90;99.90;;;;;;5022894;28;20159;-73
2024/01/25 09:17:56;;;;;;;49.63;11.63;;;5.00;99.90;;;;;;5023291;28;20422;-71
2024/01/25 09:20:22;;;;;;;55.85;12.73;;;5.00;99.90;;;;;;5018813;28;20038;-71
2024/01/25 09:22:48;;;;;;;49.85;11.75;;;5.10;99.90;;;;;;5014067;28;20086;-74
2024/01/25 09:25:14;;;;;;;54.38;10.90;;;5.10;99.90;;;;;;5017455;28;20038;-71
2024/01/25 09:27:39;;;;;;;49.50;11.45;;;5.10;99.90;;;;;;5012993;28;20475;-74
2024/01/25 09:30:08;;;;;;;53.00;12.43;;;5.10;99.90;;;;;;5018012;28;20073;-74
2024/01/25 09:32:34;;;;;;;52.85;12.90;;;5.20;99.90;;;;;;5035599;28;20125;-74
2024/01/25 09:35:03;;;;;;;54.00;11.93;;;5.20;99.90;;;;;;5000832;28;20463;-71
2024/01/25 09:37:29;;;;;;;46.15;10.80;;;5.30;99.90;;;;;;5024424;28;20571;-74
2024/01/25 09:39:54;;;;;;;57.33;13.32;;;5.20;99.90;;;;;;5015517;28;20080;-72
2024/01/25 09:42:20;;;;;;;55.90;12.10;;;5.30;99.90;;;;;;5004794;28;20267;-71
2024/01/25 09:44:46;;;;;;;47.33;11.98;;;5.30;99.90;;;;;;5005290;28;20041;-72
2024/01/25 09:47:13;;;;;;;46.72;12.70;;;5.30;99.90;;;;;;5004354;28;20053;-72
2024/01/25 09:49:39;;;;;;;49.47;12.05;;;5.30;99.90;;;;;;5019425;28;20038;-71
2024/01/25 09:52:05;;;;;;;36.83;11.63;;;5.40;99.90;;;;;;5003388;28;20395;-72
2024/01/25 09:54:35;;;;;;;43.75;11.68;;;5.40;99.90;;;;;;5018652;28;20436;-72
2024/01/25 09:57:10;;;;;;;60.30;14.23;;;5.40;99.90;;;;;;5017998;28;20059;-72
2024/01/25 09:59:36;;;;;;;52.85;13.88;;;5.40;99.90;;;;;;5010746;28;20049;-72
2024/01/25 10:02:03;;;;;;;54.25;13.88;;;5.40;99.90;;;;;;5014015;28;20634;-72
2024/01/25 10:04:29;;;;;;;56.58;15.45;;;5.40;99.90;;;;;;5025953;28;20047;-72
2024/01/25 10:06:58;;;;;;;56.90;14.60;;;5.50;99.90;;;;;;5015979;28;20559;-71
2024/01/25 10:09:24;;;;;;;63.78;15.20;;;5.50;99.90;;;;;;5033212;28;20080;-74
2024/01/25 10:11:50;;;;;;;55.00;14.65;;;5.50;99.90;;;;;;5019514;28;20061;-74
2024/01/25 10:14:16;;;;;;;45.80;13.73;;;5.50;99.90;;;;;;5016392;28;20040;-74
2024/01/25 10:16:41;;;;;;;60.00;14.43;;;5.60;99.90;;;;;;5018313;28;20044;-74
2024/01/25 10:19:07;;;;;;;57.13;13.43;;;5.60;99.90;;;;;;5035994;28;20051;-71
2024/01/25 10:21:35;;;;;;;51.88;13.77;;;5.60;99.90;;;;;;5015268;28;20159;-72
2024/01/25 10:24:02;;;;;;;52.47;13.63;;;5.70;99.90;;;;;;5004816;28;20515;-72
2024/01/25 10:26:31;;;;;;;47.42;13.45;;;5.70;99.90;;;;;;5018748;28;20065;-71
2024/01/25 10:28:58;;;;;;;57.30;13.18;;;5.70;99.90;;;;;;5016703;28;20107;-71
2024/01/25 10:31:25;;;;;;;48.33;12.77;;;5.80;99.90;;;;;;5015997;28;20056;-71
2024/01/25 10:33:52;;;;;;;54.83;13.25;;;5.80;99.90;;;;;;5021975;28;20053;-74
2024/01/25 10:36:20;;;;;;;51.30;13.07;;;5.80;99.90;;;;;;5017532;28;20050;-74
2024/01/25 10:38:48;;;;;;;43.67;11.15;;;5.90;99.90;;;;;;5037716;28;20125;-71
2024/01/25 10:41:17;;;;;;;43.60;11.30;;;5.90;99.90;;;;;;5023845;28;20048;-74
2024/01/25 10:43:43;;;;;;;46.47;11.25;;;5.90;99.90;;;;;;5020171;28;20495;-72
2024/01/25 10:46:10;;;;;;;43.78;12.63;;;6.00;99.90;;;;;;4999663;28;20053;-71
2024/01/25 10:48:36;;;;;;;47.30;13.13;;;6.00;99.90;;;;;;5020763;28;20032;-71
2024/01/25 10:51:02;;;;;;;46.53;11.82;;;6.00;99.90;;;;;;5012631;28;20045;-72
2024/01/25 10:53:34;;;;;;;47.08;12.57;;;6.10;99.90;;;;;;5014432;28;20044;-72
2024/01/25 10:56:01;;;;;;;54.10;12.88;;;6.10;99.90;;;;;;5001643;28;20399;-73
2024/01/25 10:58:33;;;;;;;42.10;12.15;;;6.20;99.90;;;;;;5021073;28;20053;-72
2024/01/25 11:01:00;;;;;;;50.05;12.55;;;6.30;99.90;;;;;;5017877;28;20049;-72
2024/01/25 11:03:27;;;;;;;49.95;13.10;;;6.40;99.90;;;;;;5015805;28;20083;-72
2024/01/25 11:05:55;;;;;;;49.88;13.27;;;6.50;99.90;;;;;;5008564;28;20044;-72
2024/01/25 11:08:21;;;;;;;48.13;13.48;;;6.50;99.90;;;;;;5018048;28;20045;-72
2024/01/25 11:10:54;;;;;;;51.80;12.52;;;6.60;99.90;;;;;;5016162;28;20052;-72
2024/01/25 11:13:29;;;;;;;42.92;12.40;;;6.70;99.90;;;;;;5022390;28;20037;-72
2024/01/25 11:15:55;;;;;;;50.88;12.80;;;6.80;99.90;;;;;;5021886;28;20045;-72
2024/01/25 11:18:25;;;;;;;46.47;12.68;;;6.90;99.90;;;;;;5019983;28;20099;-73
2024/01/25 11:20:51;;;;;;;52.40;13.77;;;7.00;99.90;;;;;;5013233;28;20057;-72
2024/01/25 11:23:17;;;;;;;45.03;12.18;;;7.00;99.90;;;;;;5015854;28;20044;-72
2024/01/25 11:25:47;;;;;;;43.10;12.07;;;7.10;99.90;;;;;;5033872;28;20056;-72
2024/01/25 11:28:17;;;;;;;40.92;11.32;;;7.20;99.90;;;;;;5022450;28;20127;-73
2024/01/25 11:30:44;;;;;;;40.35;11.48;;;7.30;99.90;;;;;;5024448;28;20041;-73
2024/01/25 11:33:11;;;;;;;41.08;12.68;;;7.30;99.90;;;;;;5019804;28;20525;-72
2024/01/25 11:35:37;;;;;;;43.00;11.75;;;7.40;99.90;;;;;;5018760;28;20057;-72
2024/01/25 11:38:03;;;;;;;41.80;12.10;;;7.40;99.90;;;;;;5015402;28;20072;-72
2024/01/25 11:40:31;;;;;;;43.33;11.55;;;7.50;99.90;;;;;;5021662;28;20053;-73
2024/01/25 11:42:57;;;;;;;38.88;11.95;;;7.50;99.90;;;;;;5025595;28;20048;-72
2024/01/25 11:45:23;;;;;;;41.85;12.88;;;7.50;99.90;;;;;;5023192;28;20033;-72
2024/01/25 11:47:49;;;;;;;42.58;12.25;;;7.60;99.90;;;;;;5023461;28;20048;-72
2024/01/25 11:50:15;;;;;;;35.92;11.52;;;7.60;99.90;;;;;;5024032;28;20399;-72
2024/01/25 11:52:41;;;;;;;46.95;14.30;;;7.70;99.90;;;;;;5020691;28;20057;-72
2024/01/25 11:55:08;;;;;;;41.92;11.73;;;7.60;99.90;;;;;;5021483;28;20148;-72
2024/01/25 11:57:43;;;;;;;43.55;11.35;;;7.70;99.90;;;;;;5017652;28;20041;-72
2024/01/25 12:00:13;;;;;;;40.47;11.82;;;7.70;99.90;;;;;;5009592;28;20055;-72
2024/01/25 12:02:39;;;;;;;42.08;12.10;;;7.60;99.90;;;;;;5018050;28;20049;-72
2024/01/25 12:05:06;;;;;;;44.33;12.68;;;7.60;99.90;;;;;;5019090;28;20045;-72
2024/01/25 12:07:32;;;;;;;36.88;12.25;;;7.50;99.90;;;;;;5013410;28;20780;-72
2024/01/25 12:10:05;;;;;;;36.80;12.18;;;7.50;99.90;;;;;;5026424;28;20119;-72
2024/01/25 12:12:31;;;;;;;40.15;11.82;;;7.50;99.90;;;;;;5018872;28;20110;-73
2024/01/25 12:15:09;;;;;;;47.75;12.93;;;7.50;99.90;;;;;;5019855;28;20050;-72
2024/01/25 12:17:39;;;;;;;43.20;12.57;;;7.60;99.90;;;;;;5016099;28;20041;-72
2024/01/25 12:20:10;;;;;;;42.95;12.68;;;7.50;99.90;;;;;;5024798;28;20041;-72
2024/01/25 12:22:37;;;;;;;41.88;12.40;;;7.60;99.90;;;;;;5014935;28;20090;-72
2024/01/25 12:25:10;;;;;;;39.83;11.77;;;7.60;99.90;;;;;;5017307;28;20041;-72
2024/01/25 12:27:37;;;;;;;41.08;11.90;;;7.70;99.90;;;;;;5010535;28;20049;-72
2024/01/25 12:30:03;;;;;;;43.88;12.05;;;7.80;99.90;;;;;;5012245;28;20620;-72
2024/01/25 12:32:29;;;;;;;40.78;10.70;;;7.90;99.90;;;;;;5016020;28;20042;-72
2024/01/25 12:34:56;;;;;;;42.53;10.77;;;7.90;99.90;;;;;;5013562;28;20099;-72
2024/01/25 12:37:22;;;;;;;41.65;10.88;;;8.00;99.90;;;;;;5021477;28;20075;-72
2024/01/25 12:39:49;;;;;;;43.92;11.70;;;8.00;99.90;;;;;;5021982;28;20044;-73